Fort Hall, ID (83203)

4:38 AM MST on February 11, 2016 (GMT -0700)
Tyhee | | Change Station
CLOSE
Current Station
Personal Weather Station
Location: Pocatello, ID
Elevation: 4459 ft
Nearby Weather Stations

Elev 4459 ft 42.98 °N, 112.46 °W | Updated 6 seconds ago

Partly Cloudy
Partly Cloudy
20.3 °F
Feels Like 20 °F
N
2.7
Wind Variable Wind from SSW
Gusts 4.9 mph

Today
High -- | Low -- °F
--% Chance of Precip.
Yesterday
High -- | Low -- °F
Precip. -- in
Pressure 30.50 in
Visibility 7.0 miles
Clouds Clear
Windchill 20 °F
Dew Point 15 °F
Humidity 79%
Rainfall 0.00 in
Snow Depth Not available.
7:33 AM 5:55 PM
Waxing Crescent, 11% visible
METAR KPIH 111053Z AUTO 00000KT 7SM CLR M06/M08 A3041 RMK AO2 SLP327 T10611078
Pressure 30.50 in
Visibility 7.0 miles
Clouds Clear
Windchill 20 °F
Dew Point 15 °F
Humidity 79%
Rainfall 0.00 in
Snow Depth Not available.
7:33 AM 5:55 PM
Waxing Crescent, 11% visible
METAR KPIH 111053Z AUTO 00000KT 7SM CLR M06/M08 A3041 RMK AO2 SLP327 T10611078

10-Day Weather Forecast

Almanac

Astronomy

Feb. 11, 2016 Rise Set
Actual Time
Civil Twilight
Nautical Twilight
Astronomical Twilight
Moon
Length of Visible Light
Length of Day
Tomorrow will be .
, % of the Moon is Illuminated

Today's Extremes

State Highs State Lows

Community

WunderPhotos

Upload Photos

1,892,030 photos uploaded!

WunderBlog® & News

Nearby

Air Quality

  Air Quality AQ Index Pollutant
Not available.

Snow Depth

Station Depth Elevation

Earthquake Activity

City Distance Mag. Time & Date
Minimum magnitude displayed is 2.5.

Coastal Water Temperatures

Place Temperature

Stations

Nearby Weather Stations

Station Location Temp. Windchill Dew Point Humidity Wind Precip. Elev Updated Type
                   

Watches & Warnings

There are currently no watches in effect.